createdAt,value
2018-03-03T00:00:06.034Z,55.47
2018-03-03T00:01:08.593Z,50.90
2018-03-03T00:02:11.270Z,57.97
2018-03-03T00:03:13.861Z,59.67
2018-03-03T00:04:17.191Z,60.38
2018-03-03T00:05:19.775Z,57.05
2018-03-03T00:06:22.337Z,56.37
2018-03-03T00:07:24.942Z,57.65
2018-03-03T00:08:27.514Z,56.45
2018-03-03T00:09:30.840Z,65.07
2018-03-03T00:10:33.389Z,60.75
2018-03-03T00:11:35.938Z,56.88
2018-03-03T00:12:39.287Z,60.60
2018-03-03T00:13:41.860Z,58.60
2018-03-03T00:14:44.465Z,56.28
2018-03-03T00:15:47.789Z,66.10
2018-03-03T00:16:50.363Z,57.78
2018-03-03T00:17:52.953Z,55.45
2018-03-03T00:18:55.503Z,60.70
2018-03-03T00:19:58.064Z,62.08
2018-03-03T00:21:00.715Z,60.63
2018-03-03T00:22:03.385Z,64.75
2018-03-03T00:23:05.977Z,72.18
2018-03-03T00:24:08.594Z,59.75
2018-03-03T00:25:11.923Z,55.97
2018-03-03T00:26:14.478Z,57.95
2018-03-03T00:27:17.043Z,58.33
2018-03-03T00:28:19.599Z,60.45
2018-03-03T00:29:22.186Z,60.00
2018-03-03T00:30:24.739Z,61.13
2018-03-03T00:31:27.317Z,66.93
2018-03-03T00:32:29.907Z,54.20
2018-03-03T00:33:32.474Z,57.33
2018-03-03T00:34:35.062Z,62.50
2018-03-03T00:35:37.630Z,57.15
2018-03-03T00:36:40.194Z,60.83
2018-03-03T00:37:42.777Z,54.15
2018-03-03T00:38:46.104Z,50.12
2018-03-03T00:39:48.659Z,61.50
2018-03-03T00:40:51.231Z,59.53
2018-03-03T00:41:53.785Z,58.13
2018-03-03T00:42:56.370Z,57.88
2018-03-03T00:43:58.930Z,58.03
2018-03-03T00:45:01.492Z,64.62
2018-03-03T00:46:04.041Z,61.83
2018-03-03T00:47:06.594Z,49.75
2018-03-03T00:48:09.956Z,54.20
2018-03-03T00:49:12.512Z,64.85
2018-03-03T00:50:15.058Z,63.80
2018-03-03T00:51:17.631Z,56.40
2018-03-03T00:52:20.194Z,59.13
2018-03-03T00:53:22.776Z,59.50
2018-03-03T00:54:25.330Z,56.22
2018-03-03T00:55:27.900Z,65.10
2018-03-03T00:56:30.511Z,71.43
2018-03-03T00:57:33.871Z,65.57
2018-03-03T00:58:36.432Z,59.53
2018-03-03T00:59:39.019Z,65.75
2018-03-03T01:00:42.346Z,58.00
2018-03-03T01:01:44.900Z,62.85
2018-03-03T01:02:47.517Z,62.42
2018-03-03T01:03:50.065Z,63.65
2018-03-03T01:04:52.677Z,58.72
2018-03-03T01:05:55.998Z,58.47
2018-03-03T01:06:58.562Z,56.72
2018-03-03T01:08:01.120Z,59.08
2018-03-03T01:09:03.677Z,58.20
2018-03-03T01:10:07.037Z,62.53
2018-03-03T01:11:09.594Z,60.50
2018-03-03T01:12:12.142Z,61.40
2018-03-03T01:13:14.743Z,60.28
2018-03-03T01:14:17.293Z,57.67
2018-03-03T01:15:19.841Z,56.60
2018-03-03T01:16:22.390Z,62.42
2018-03-03T01:17:24.974Z,56.67
2018-03-03T01:18:27.537Z,58.60
2018-03-03T01:19:30.132Z,63.67
2018-03-03T01:20:32.691Z,65.90
2018-03-03T01:21:35.290Z,61.90
2018-03-03T01:22:38.606Z,79.47
2018-03-03T01:23:41.157Z,61.75
2018-03-03T01:24:43.741Z,66.07
2018-03-03T01:25:46.301Z,54.90
2018-03-03T01:26:48.858Z,63.15
2018-03-03T01:27:51.413Z,58.78
2018-03-03T01:28:53.991Z,64.22
2018-03-03T01:29:56.574Z,62.45
2018-03-03T01:30:59.268Z,57.47
2018-03-03T01:32:01.823Z,62.53
2018-03-03T01:33:04.382Z,56.92
2018-03-03T01:34:06.937Z,62.70
2018-03-03T01:35:09.521Z,61.22
2018-03-03T01:36:12.075Z,67.18
2018-03-03T01:37:14.625Z,65.85
2018-03-03T01:38:17.195Z,63.22
2018-03-03T01:39:19.797Z,59.65
2018-03-03T01:40:22.378Z,63.33
2018-03-03T01:41:24.931Z,65.03
2018-03-03T01:42:27.488Z,59.95
2018-03-03T01:43:30.050Z,62.95
2018-03-03T01:44:32.640Z,61.70
2018-03-03T01:45:35.194Z,54.25
2018-03-03T01:46:37.747Z,63.03
2018-03-03T01:47:40.297Z,60.28
2018-03-03T01:48:42.854Z,58.25
2018-03-03T01:49:46.206Z,63.20
2018-03-03T01:50:48.806Z,59.33
2018-03-03T01:51:51.372Z,66.97
2018-03-03T01:52:54.694Z,63.80
2018-03-03T01:53:57.250Z,65.10
2018-03-03T01:54:59.807Z,70.55
2018-03-03T01:56:02.388Z,61.85
2018-03-03T01:57:04.934Z,61.20
2018-03-03T01:58:07.522Z,62.20
2018-03-03T01:59:10.071Z,63.00
2018-03-03T02:00:12.626Z,62.42
2018-03-03T02:01:15.186Z,58.97
2018-03-03T02:02:18.506Z,60.30
2018-03-03T02:03:21.094Z,61.47
2018-03-03T02:04:23.651Z,66.78
2018-03-03T02:05:26.212Z,65.30
2018-03-03T02:06:28.802Z,63.58
2018-03-03T02:07:31.354Z,56.60
2018-03-03T02:08:33.910Z,58.00
2018-03-03T02:09:36.458Z,57.33
2018-03-03T02:10:39.017Z,66.62
2018-03-03T02:11:41.609Z,55.53
2018-03-03T02:12:44.169Z,59.45
2018-03-03T02:13:46.727Z,61.03
2018-03-03T02:14:49.278Z,64.97
2018-03-03T02:15:51.839Z,56.33
2018-03-03T02:16:55.269Z,57.75
2018-03-03T02:17:57.832Z,68.65
2018-03-03T02:19:00.418Z,61.10
2018-03-03T02:20:03.007Z,67.32
2018-03-03T02:21:05.566Z,56.13
2018-03-03T02:22:08.113Z,53.20
2018-03-03T02:23:10.665Z,60.08
2018-03-03T02:24:13.218Z,64.45
2018-03-03T02:25:15.805Z,55.70
2018-03-03T02:26:18.398Z,62.10
2018-03-03T02:27:20.950Z,62.10
2018-03-03T02:28:23.510Z,62.38
2018-03-03T02:29:26.068Z,70.10
2018-03-03T02:30:28.625Z,63.47
2018-03-03T02:31:31.221Z,66.82
2018-03-03T02:32:33.788Z,59.47
2018-03-03T02:33:36.394Z,66.55
2018-03-03T02:34:39.715Z,61.13
2018-03-03T02:35:42.286Z,56.35
2018-03-03T02:36:44.885Z,64.53
2018-03-03T02:37:47.442Z,65.78
2018-03-03T02:38:50.039Z,69.37
2018-03-03T02:39:53.361Z,57.00
2018-03-03T02:40:55.914Z,61.55
2018-03-03T02:41:58.507Z,67.37
2018-03-03T02:43:01.060Z,57.20
2018-03-03T02:44:03.647Z,60.67
2018-03-03T02:45:06.198Z,60.47
2018-03-03T02:46:08.763Z,63.30
2018-03-03T02:47:11.317Z,65.72
2018-03-03T02:48:13.874Z,61.53
2018-03-03T02:49:16.462Z,56.58
2018-03-03T02:50:19.020Z,62.90
2018-03-03T02:51:21.609Z,58.20
2018-03-03T02:52:24.167Z,77.15
2018-03-03T02:53:26.722Z,60.42
2018-03-03T02:54:29.279Z,57.05
2018-03-03T02:55:31.829Z,64.47
2018-03-03T02:56:35.183Z,63.28
2018-03-03T02:57:37.906Z,53.63
2018-03-03T02:58:40.456Z,53.22
2018-03-03T02:59:43.775Z,63.72
2018-03-03T03:00:46.330Z,59.90
2018-03-03T03:01:48.910Z,56.97
2018-03-03T03:02:51.468Z,68.65
2018-03-03T03:03:54.023Z,68.32
2018-03-03T03:04:56.585Z,56.80
2018-03-03T03:05:59.146Z,58.33
2018-03-03T03:07:02.537Z,58.87
2018-03-03T03:08:05.089Z,55.05
2018-03-03T03:09:08.411Z,51.70
2018-03-03T03:10:10.967Z,62.20
2018-03-03T03:11:13.524Z,69.70
2018-03-03T03:12:16.134Z,55.22
2018-03-03T03:13:19.466Z,61.17
2018-03-03T03:14:22.029Z,59.95
2018-03-03T03:15:25.350Z,59.20
2018-03-03T03:16:27.906Z,64.40
2018-03-03T03:17:30.494Z,59.40
2018-03-03T03:18:33.052Z,68.07
2018-03-03T03:19:35.607Z,65.47
2018-03-03T03:20:38.157Z,57.00
2018-03-03T03:21:40.710Z,71.72
2018-03-03T03:22:44.086Z,59.58
2018-03-03T03:23:46.638Z,55.30
2018-03-03T03:24:49.198Z,61.17
2018-03-03T03:25:51.764Z,63.78
2018-03-03T03:26:54.324Z,63.80
2018-03-03T03:27:56.917Z,57.28
2018-03-03T03:29:00.255Z,59.35
2018-03-03T03:30:02.816Z,61.28
2018-03-03T03:31:05.372Z,68.47
2018-03-03T03:32:07.927Z,62.62
2018-03-03T03:33:10.519Z,61.92
2018-03-03T03:34:13.081Z,60.05
2018-03-03T03:35:15.640Z,60.30
2018-03-03T03:36:18.193Z,60.35
2018-03-03T03:37:21.514Z,57.20
2018-03-03T03:38:24.103Z,58.25
2018-03-03T03:39:26.666Z,60.40
2018-03-03T03:40:29.217Z,55.72
2018-03-03T03:41:31.771Z,59.22
2018-03-03T03:42:34.333Z,60.78
2018-03-03T03:43:36.923Z,57.17
2018-03-03T03:44:39.478Z,53.55
2018-03-03T03:45:42.053Z,58.75
2018-03-03T03:46:44.610Z,60.70
2018-03-03T03:47:47.191Z,64.18
2018-03-03T03:48:49.775Z,51.90
2018-03-03T03:49:52.337Z,58.63
2018-03-03T03:50:54.886Z,54.22
2018-03-03T03:51:57.444Z,59.63
2018-03-03T03:52:59.997Z,59.03
2018-03-03T03:54:02.581Z,58.95
2018-03-03T03:55:05.179Z,63.05
2018-03-03T03:56:07.734Z,60.92
2018-03-03T03:57:10.286Z,62.92
2018-03-03T03:58:12.851Z,59.83
2018-03-03T03:59:15.401Z,65.35
2018-03-03T04:00:17.984Z,60.60
2018-03-03T04:01:20.566Z,69.55
2018-03-03T04:02:23.122Z,66.93
2018-03-03T04:03:25.680Z,60.45
2018-03-03T04:04:28.239Z,63.60
2018-03-03T04:05:30.799Z,56.58
2018-03-03T04:06:33.392Z,62.13
2018-03-03T04:07:35.965Z,67.18
2018-03-03T04:08:38.521Z,59.63
2018-03-03T04:09:41.106Z,55.47
2018-03-03T04:10:43.736Z,59.67
2018-03-03T04:11:46.323Z,63.87
2018-03-03T04:12:48.910Z,58.20
2018-03-03T04:13:51.468Z,63.03
2018-03-03T04:14:54.014Z,60.47
2018-03-03T04:15:56.609Z,62.15
2018-03-03T04:16:59.170Z,64.32
2018-03-03T04:18:01.727Z,65.80
2018-03-03T04:19:04.282Z,65.15
2018-03-03T04:20:06.873Z,57.85
2018-03-03T04:21:09.444Z,65.10
2018-03-03T04:22:12.003Z,62.15
2018-03-03T04:23:14.557Z,66.35
2018-03-03T04:24:17.105Z,64.85
2018-03-03T04:25:19.685Z,55.40
2018-03-03T04:26:22.238Z,59.03
2018-03-03T04:27:24.803Z,56.47
2018-03-03T04:28:27.354Z,67.85
2018-03-03T04:29:29.942Z,58.78
2018-03-03T04:30:32.502Z,59.95
2018-03-03T04:31:35.057Z,55.97
2018-03-03T04:32:37.634Z,69.03
2018-03-03T04:33:40.267Z,55.97
2018-03-03T04:34:42.849Z,66.80
2018-03-03T04:35:46.170Z,55.47
2018-03-03T04:36:48.732Z,59.13
2018-03-03T04:37:51.294Z,54.30
2018-03-03T04:38:53.846Z,56.22
2018-03-03T04:39:56.485Z,63.08
2018-03-03T04:40:59.040Z,53.35
2018-03-03T04:42:01.603Z,59.33
2018-03-03T04:43:04.168Z,62.53
2018-03-03T04:45:15.843Z,60.50
2018-03-03T04:46:18.390Z,55.42
2018-03-03T04:47:20.946Z,64.43
2018-03-03T04:48:23.508Z,65.07
2018-03-03T04:49:26.065Z,56.70
2018-03-03T04:50:28.658Z,53.95
2018-03-03T04:51:31.259Z,65.97
2018-03-03T04:52:33.815Z,56.63
2018-03-03T04:53:36.371Z,59.75
2018-03-03T04:54:38.935Z,52.13
2018-03-03T04:55:42.290Z,61.60
2018-03-03T04:56:45.176Z,59.40
2018-03-03T04:57:47.771Z,62.92
2018-03-03T04:58:54.306Z,69.30
2018-03-03T05:00:12.563Z,58.25
2018-03-03T05:01:15.119Z,60.45
2018-03-03T05:02:23.236Z,60.47
2018-03-03T05:03:28.635Z,67.50
2018-03-03T05:04:36.801Z,61.58
2018-03-03T05:07:39.459Z,56.08
2018-03-03T05:08:42.028Z,54.03
2018-03-03T05:09:44.548Z,62.40
2018-03-03T05:10:48.724Z,66.70
2018-03-03T05:11:52.030Z,62.03
2018-03-03T05:14:34.677Z,58.40
2018-03-03T05:15:52.090Z,55.90
2018-03-03T05:18:44.130Z,60.67
2018-03-03T05:19:52.446Z,58.80
2018-03-03T05:21:00.663Z,57.53
2018-03-03T05:22:09.738Z,63.90
2018-03-03T05:23:18.125Z,51.33
2018-03-03T05:24:26.243Z,62.78
2018-03-03T05:25:34.489Z,58.30
2018-03-03T05:26:43.385Z,58.00
2018-03-03T05:27:51.522Z,54.28
2018-03-03T05:28:59.719Z,55.70
2018-03-03T05:30:07.923Z,73.62
2018-03-03T05:31:16.089Z,62.13
2018-03-03T05:34:06.936Z,58.22
2018-03-03T05:35:15.142Z,61.53
2018-03-03T05:36:33.367Z,62.38
2018-03-03T05:37:41.454Z,55.80
2018-03-03T05:40:27.538Z,68.00
2018-03-03T05:41:35.788Z,67.40
2018-03-03T05:42:44.033Z,67.72
2018-03-03T05:43:47.365Z,56.78
2018-03-03T05:44:55.541Z,55.47
2018-03-03T05:46:03.816Z,58.10
2018-03-03T05:48:59.342Z,55.53
2018-03-03T05:50:20.562Z,50.08
2018-03-03T05:51:40.756Z,53.28
2018-03-03T05:52:59.023Z,55.63
2018-03-03T05:54:07.212Z,50.50
2018-03-03T05:55:15.406Z,50.63
2018-03-03T05:56:23.700Z,53.50
2018-03-03T05:57:31.804Z,48.03
2018-03-03T05:58:40.192Z,53.50
2018-03-03T05:59:48.384Z,54.95
2018-03-03T06:00:51.856Z,50.67
2018-03-03T06:01:59.838Z,52.35
2018-03-03T06:03:07.844Z,49.80
2018-03-03T06:04:15.950Z,47.30
2018-03-03T06:05:24.231Z,56.22
2018-03-03T06:06:30.194Z,50.17
2018-03-03T06:07:41.465Z,59.25
2018-03-03T06:08:45.813Z,46.08
2018-03-03T06:09:51.466Z,60.38
2018-03-03T06:10:53.999Z,55.58
2018-03-03T06:11:56.538Z,50.63
2018-03-03T06:12:59.058Z,42.85
2018-03-03T06:14:01.615Z,54.45
2018-03-03T06:15:04.159Z,53.15
2018-03-03T06:16:06.695Z,50.92
2018-03-03T06:17:09.219Z,62.17
2018-03-03T06:18:11.797Z,64.97
2018-03-03T06:19:14.325Z,52.42
2018-03-03T06:20:16.845Z,51.90
2018-03-03T06:21:20.133Z,57.65
2018-03-03T06:22:23.422Z,54.10
2018-03-03T06:23:25.981Z,52.75
2018-03-03T06:24:29.268Z,58.13
2018-03-03T06:25:32.592Z,57.25
2018-03-03T06:26:35.113Z,95.07
2018-03-03T06:27:38.408Z,63.35
2018-03-03T06:28:40.932Z,63.83
2018-03-03T06:29:43.458Z,58.05
2018-03-03T06:30:46.019Z,55.35
2018-03-03T06:31:48.542Z,62.38
2018-03-03T06:32:51.092Z,72.50
2018-03-03T06:33:53.677Z,65.05
2018-03-03T06:34:56.210Z,58.35
2018-03-03T06:35:58.732Z,65.97
2018-03-03T06:37:01.259Z,56.05
2018-03-03T06:38:03.829Z,53.05
2018-03-03T06:39:06.384Z,46.40
2018-03-03T06:40:08.920Z,52.42
2018-03-03T06:41:11.445Z,87.70
2018-03-03T06:42:13.999Z,62.90
2018-03-03T06:43:16.563Z,60.15
2018-03-03T06:44:19.129Z,49.60
2018-03-03T06:45:21.664Z,53.42
2018-03-03T06:46:24.189Z,61.30
2018-03-03T06:47:27.476Z,55.65
2018-03-03T06:48:30.774Z,53.22
2018-03-03T06:49:33.337Z,53.38
2018-03-03T06:50:35.889Z,60.00
2018-03-03T06:51:39.186Z,64.15
2018-03-03T06:52:41.710Z,57.67
2018-03-03T06:55:23.477Z,56.25
2018-03-03T06:58:03.858Z,52.05
2018-03-03T06:59:06.390Z,61.15
2018-03-03T07:00:08.953Z,58.45
2018-03-03T07:01:11.504Z,67.70
2018-03-03T07:02:14.035Z,56.28
2018-03-03T07:03:17.373Z,53.35
2018-03-03T07:04:19.920Z,49.47
2018-03-03T07:05:22.473Z,49.20
2018-03-03T07:06:25.033Z,50.10
2018-03-03T07:07:28.390Z,48.92
2018-03-03T07:08:30.934Z,45.65
2018-03-03T07:09:33.486Z,52.05
2018-03-03T07:10:36.017Z,53.45
2018-03-03T07:11:39.319Z,44.42
2018-03-03T07:12:41.907Z,54.38
2018-03-03T07:13:44.445Z,45.83
2018-03-03T07:14:47.741Z,51.25
2018-03-03T07:15:50.271Z,51.58
2018-03-03T07:16:52.904Z,54.60
2018-03-03T07:17:55.428Z,52.17
2018-03-03T07:18:58.724Z,49.10
2018-03-03T07:20:01.255Z,48.87
2018-03-03T07:21:04.569Z,54.88
2018-03-03T07:22:07.152Z,59.13
2018-03-03T07:23:09.690Z,49.80
2018-03-03T07:24:13.033Z,51.70
2018-03-03T07:25:15.567Z,61.35
2018-03-03T07:26:18.125Z,57.88
2018-03-03T07:27:20.669Z,48.15
2018-03-03T07:28:24.023Z,49.03
2018-03-03T07:29:26.541Z,58.00
2018-03-03T07:30:29.085Z,52.10
2018-03-03T07:31:32.392Z,48.65
2018-03-03T07:32:34.997Z,46.67
2018-03-03T07:33:37.533Z,55.50
2018-03-03T07:34:40.062Z,50.58
2018-03-03T07:35:43.359Z,52.78
2018-03-03T07:36:46.693Z,48.40
2018-03-03T07:37:49.234Z,47.85
2018-03-03T07:38:51.822Z,50.55
2018-03-03T07:39:54.347Z,50.03
2018-03-03T07:40:57.634Z,54.08
2018-03-03T07:42:00.972Z,49.25
2018-03-03T07:43:03.510Z,53.22
2018-03-03T07:44:06.051Z,53.33
2018-03-03T07:45:09.349Z,52.70
2018-03-03T07:46:11.900Z,44.58
2018-03-03T07:47:15.224Z,50.17
2018-03-03T07:48:17.753Z,55.92
2018-03-03T07:49:21.059Z,58.38
2018-03-03T07:50:23.636Z,56.40
2018-03-03T07:51:26.168Z,63.83
2018-03-03T07:52:29.464Z,51.88
2018-03-03T07:53:31.999Z,54.15
2018-03-03T07:54:34.529Z,51.35
2018-03-03T07:55:37.106Z,61.92
2018-03-03T07:56:50.502Z,53.80
2018-03-03T07:57:53.437Z,60.63
2018-03-03T07:58:57.680Z,47.08
2018-03-03T08:00:00.217Z,59.95
2018-03-03T08:01:03.542Z,53.72
2018-03-03T08:02:06.474Z,58.38
2018-03-03T08:03:09.780Z,54.85
2018-03-03T08:04:12.309Z,65.57
2018-03-03T08:05:14.838Z,53.22
2018-03-03T08:06:17.375Z,57.42
2018-03-03T08:07:19.934Z,47.45
2018-03-03T08:08:22.467Z,54.72
2018-03-03T08:09:24.992Z,58.22
2018-03-03T08:10:27.528Z,67.12
2018-03-03T08:11:30.103Z,52.00
2018-03-03T08:12:32.629Z,50.85
2018-03-03T08:13:35.165Z,52.58
2018-03-03T08:14:37.696Z,50.75
2018-03-03T08:15:40.241Z,61.95
2018-03-03T08:16:43.580Z,58.50
2018-03-03T08:17:46.111Z,58.00
2018-03-03T08:18:49.416Z,47.60
2018-03-03T08:19:51.942Z,55.42
2018-03-03T08:20:55.604Z,61.97
2018-03-03T08:21:58.130Z,55.58
2018-03-03T08:23:00.662Z,57.38
2018-03-03T08:24:03.357Z,51.63
2018-03-03T08:25:06.402Z,58.33
2018-03-03T08:26:09.121Z,54.22
2018-03-03T08:27:11.881Z,58.40
2018-03-03T08:28:14.422Z,65.87
2018-03-03T08:29:17.746Z,54.97
2018-03-03T08:30:20.296Z,63.13
2018-03-03T08:31:22.856Z,60.45
2018-03-03T08:32:26.193Z,55.92
2018-03-03T08:33:28.743Z,55.83
2018-03-03T08:34:31.278Z,55.45
2018-03-03T08:35:33.817Z,59.17
2018-03-03T08:36:36.357Z,55.80
2018-03-03T08:37:38.931Z,54.72
2018-03-03T08:38:41.469Z,59.67
2018-03-03T08:39:44.047Z,65.50
2018-03-03T08:40:46.584Z,53.83
2018-03-03T08:41:49.129Z,61.20
2018-03-03T08:42:52.464Z,61.95
2018-03-03T08:43:55.045Z,59.58
2018-03-03T08:44:57.537Z,52.58
2018-03-03T08:46:00.071Z,62.55
2018-03-03T08:47:02.651Z,53.15
2018-03-03T08:48:05.191Z,68.65
2018-03-03T08:49:07.721Z,51.92
2018-03-03T08:50:10.251Z,60.63
2018-03-03T08:51:12.776Z,53.33
2018-03-03T08:52:15.355Z,61.25
2018-03-03T08:53:17.896Z,53.47
2018-03-03T08:54:20.424Z,58.70
2018-03-03T08:55:22.951Z,60.75
2018-03-03T08:56:25.477Z,58.13
2018-03-03T08:57:28.818Z,55.10
2018-03-03T08:58:31.341Z,58.67
2018-03-03T08:59:33.875Z,56.53
2018-03-03T09:00:36.414Z,60.95
2018-03-03T09:01:38.968Z,58.45
2018-03-03T09:02:41.544Z,57.47
2018-03-03T09:03:44.080Z,60.63
2018-03-03T09:04:46.613Z,55.85
2018-03-03T09:05:49.153Z,58.10
2018-03-03T09:06:51.686Z,58.80
2018-03-03T09:07:54.251Z,56.33
2018-03-03T09:08:56.828Z,61.63
2018-03-03T09:09:59.361Z,57.65
2018-03-03T09:11:02.654Z,57.13
2018-03-03T09:12:05.198Z,73.97
2018-03-03T09:13:07.741Z,56.95
2018-03-03T09:14:10.306Z,58.28
2018-03-03T09:15:12.873Z,61.00
2018-03-03T09:16:15.409Z,70.37
2018-03-03T09:17:17.947Z,59.00
2018-03-03T09:18:20.479Z,54.45
2018-03-03T09:19:23.008Z,56.45
2018-03-03T09:20:25.574Z,56.00
2018-03-03T09:21:28.100Z,58.60
2018-03-03T09:22:31.393Z,60.60
2018-03-03T09:23:34.717Z,56.85
2018-03-03T09:24:37.249Z,62.72
2018-03-03T09:25:39.773Z,53.05
2018-03-03T09:26:42.334Z,58.80
2018-03-03T09:27:44.872Z,61.17
2018-03-03T09:28:47.441Z,69.15
2018-03-03T09:29:50.016Z,61.50
2018-03-03T09:30:52.577Z,62.83
2018-03-03T09:31:55.335Z,58.00
2018-03-03T09:32:57.872Z,62.60
2018-03-03T09:34:01.192Z,60.90
2018-03-03T09:35:03.724Z,69.45
2018-03-03T09:36:07.032Z,63.42
2018-03-03T09:37:09.616Z,61.30
2018-03-03T09:38:12.146Z,63.90
2018-03-03T09:39:15.458Z,61.97
2018-03-03T09:40:18.041Z,62.50
2018-03-03T09:41:20.581Z,59.03
2018-03-03T09:42:23.121Z,71.80
2018-03-03T09:43:26.420Z,72.28
2018-03-03T09:44:28.962Z,68.10
2018-03-03T09:45:31.527Z,63.20
2018-03-03T09:46:34.054Z,61.40
2018-03-03T09:47:36.605Z,61.42
2018-03-03T09:48:39.138Z,60.20
2018-03-03T09:49:42.445Z,62.25
2018-03-03T09:50:45.022Z,62.65
2018-03-03T09:51:47.564Z,59.25
2018-03-03T09:52:50.105Z,64.30
2018-03-03T09:53:52.649Z,67.28
2018-03-03T09:54:55.204Z,59.83
2018-03-03T09:55:57.778Z,71.62
2018-03-03T09:57:00.306Z,73.53
2018-03-03T09:58:02.842Z,80.20
2018-03-03T09:59:05.374Z,69.95
2018-03-03T10:00:07.909Z,68.75
2018-03-03T10:01:10.473Z,65.72
2018-03-03T10:02:13.005Z,62.45
2018-03-03T10:03:15.557Z,68.80
2018-03-03T10:04:18.098Z,69.45
2018-03-03T10:05:20.624Z,62.45
2018-03-03T10:06:23.963Z,71.80
2018-03-03T10:07:26.505Z,65.12
2018-03-03T10:08:29.041Z,67.65
2018-03-03T10:09:32.333Z,69.70
2018-03-03T10:10:34.868Z,67.03
2018-03-03T10:11:37.443Z,63.53
2018-03-03T10:13:49.607Z,67.93
2018-03-03T10:14:52.153Z,66.32
2018-03-03T10:15:54.697Z,71.18
2018-03-03T10:16:57.229Z,74.65
2018-03-03T10:17:59.762Z,66.68
2018-03-03T10:19:02.328Z,61.65
2018-03-03T10:20:04.869Z,66.28
2018-03-03T10:21:07.426Z,60.12
2018-03-03T10:22:10.729Z,70.75
2018-03-03T10:23:13.273Z,69.28
2018-03-03T10:24:16.611Z,68.00
2018-03-03T10:25:19.145Z,62.42
2018-03-03T10:26:21.677Z,77.85
2018-03-03T10:27:24.999Z,66.70
2018-03-03T10:28:27.577Z,75.22
2018-03-03T10:29:30.130Z,73.10
2018-03-03T10:30:32.677Z,69.32
2018-03-03T10:31:35.973Z,63.45
2018-03-03T10:32:38.505Z,64.10
2018-03-03T10:33:41.078Z,69.62
2018-03-03T10:34:44.377Z,62.97
2018-03-03T10:35:46.922Z,65.32
2018-03-03T10:36:49.459Z,67.70
2018-03-03T10:37:52.018Z,62.28
2018-03-03T10:38:54.545Z,64.53
2018-03-03T10:39:57.873Z,64.70
2018-03-03T10:41:00.417Z,68.25
2018-03-03T10:42:02.977Z,63.95
2018-03-03T10:43:05.545Z,66.43
2018-03-03T10:44:08.083Z,69.57
2018-03-03T10:45:11.382Z,62.45
2018-03-03T10:46:13.930Z,59.97
2018-03-03T10:47:17.236Z,63.03
2018-03-03T10:48:19.805Z,69.10
2018-03-03T10:49:22.384Z,62.58
2018-03-03T10:50:24.921Z,60.22
2018-03-03T10:51:28.218Z,55.85
2018-03-03T10:52:30.762Z,62.40
2018-03-03T10:53:34.113Z,62.28
2018-03-03T10:54:37.408Z,71.07
2018-03-03T10:55:39.946Z,67.25
2018-03-03T10:56:42.543Z,68.00
2018-03-03T10:57:45.077Z,67.93
2018-03-03T10:58:47.645Z,65.43
2018-03-03T10:59:50.188Z,62.67
2018-03-03T11:00:52.717Z,63.63
2018-03-03T11:01:55.289Z,68.43
2018-03-03T11:02:57.832Z,68.05
2018-03-03T11:04:00.380Z,66.93
2018-03-03T11:05:02.944Z,72.60
2018-03-03T11:06:05.524Z,63.85
2018-03-03T11:07:08.128Z,65.65
2018-03-03T11:08:10.661Z,61.30
2018-03-03T11:09:13.207Z,68.40
2018-03-03T11:10:15.744Z,59.08
2018-03-03T11:11:18.330Z,65.55
2018-03-03T11:12:20.873Z,68.75
2018-03-03T11:13:24.169Z,68.05
2018-03-03T11:14:26.729Z,67.97
2018-03-03T11:15:29.289Z,64.35
2018-03-03T11:16:32.641Z,70.37
2018-03-03T11:17:35.183Z,69.85
2018-03-03T11:18:37.736Z,56.75
2018-03-03T11:19:40.265Z,60.05
2018-03-03T11:20:43.571Z,64.62
2018-03-03T11:21:46.133Z,74.65
2018-03-03T11:22:48.665Z,77.43
2018-03-03T11:23:51.201Z,69.10
2018-03-03T11:24:53.738Z,66.15
2018-03-03T11:25:56.314Z,59.53
2018-03-03T11:26:58.841Z,67.37
2018-03-03T11:28:01.370Z,63.00
2018-03-03T11:29:03.917Z,67.60
2018-03-03T11:30:06.456Z,65.35
2018-03-03T11:31:09.850Z,70.53
2018-03-03T11:32:12.373Z,71.68
2018-03-03T11:33:14.905Z,64.37
2018-03-03T11:34:17.444Z,76.47
2018-03-03T11:35:20.734Z,68.87
2018-03-03T11:36:23.296Z,59.03
2018-03-03T11:37:26.642Z,63.63
2018-03-03T11:38:29.174Z,65.40
2018-03-03T11:39:31.712Z,69.60
2018-03-03T11:40:35.057Z,73.15
2018-03-03T11:41:37.598Z,66.15
2018-03-03T11:42:40.169Z,75.68
2018-03-03T11:43:42.730Z,71.43
2018-03-03T11:44:45.267Z,65.32
2018-03-03T11:45:47.804Z,68.55
2018-03-03T11:46:50.367Z,73.53
2018-03-03T11:47:52.893Z,72.40
2018-03-03T11:48:55.471Z,68.85
2018-03-03T11:49:58.005Z,70.93
2018-03-03T11:51:00.532Z,70.82
2018-03-03T11:52:03.065Z,70.75
2018-03-03T11:53:05.605Z,68.93
2018-03-03T11:54:08.173Z,70.93
2018-03-03T11:55:10.737Z,63.53
2018-03-03T11:56:13.266Z,73.10
2018-03-03T11:57:15.793Z,66.10
2018-03-03T11:58:18.369Z,67.18
2018-03-03T11:59:20.908Z,68.95
2018-03-03T12:00:23.445Z,70.37
2018-03-03T12:01:26.770Z,68.43
2018-03-03T12:02:29.303Z,80.43
2018-03-03T12:03:32.598Z,72.28
2018-03-03T12:04:35.138Z,79.90
2018-03-03T12:05:38.476Z,72.22
2018-03-03T12:06:41.011Z,64.65
2018-03-03T12:07:43.547Z,74.00
2018-03-03T12:08:46.078Z,68.82
2018-03-03T12:09:48.648Z,75.03
2018-03-03T12:10:51.216Z,61.53
2018-03-03T12:11:53.760Z,75.80
2018-03-03T12:12:56.297Z,67.40
2018-03-03T12:13:59.601Z,61.72
2018-03-03T12:15:02.169Z,73.75
2018-03-03T12:16:04.701Z,69.22
2018-03-03T12:17:07.240Z,66.90
2018-03-03T12:18:09.788Z,79.10
2018-03-03T12:19:12.326Z,70.60
2018-03-03T12:20:14.891Z,73.30
2018-03-03T12:21:18.202Z,71.95
2018-03-03T12:22:20.775Z,70.55
2018-03-03T12:23:23.324Z,61.37
2018-03-03T12:24:25.856Z,74.32
2018-03-03T12:25:29.150Z,67.10
2018-03-03T12:26:32.460Z,72.80
2018-03-03T12:27:35.025Z,61.80
2018-03-03T12:28:37.556Z,74.68
2018-03-03T12:29:40.890Z,70.28
2018-03-03T12:30:43.424Z,66.78
2018-03-03T12:31:46.789Z,59.20
2018-03-03T12:32:49.324Z,70.10
2018-03-03T12:33:51.861Z,74.47
2018-03-03T12:34:54.394Z,68.18
2018-03-03T12:35:57.697Z,71.72
2018-03-03T12:37:00.272Z,75.53
2018-03-03T12:38:02.801Z,75.32
2018-03-03T12:39:05.345Z,79.43
2018-03-03T12:40:07.881Z,69.30
2018-03-03T12:41:10.410Z,71.93
2018-03-03T12:42:12.993Z,76.72
2018-03-03T12:43:15.530Z,75.22
2018-03-03T12:44:18.056Z,67.05
2018-03-03T12:45:20.584Z,71.10
2018-03-03T12:46:23.881Z,72.93
2018-03-03T12:47:26.440Z,73.37
2018-03-03T12:48:29.738Z,75.40
2018-03-03T12:49:32.266Z,71.40
2018-03-03T12:50:35.577Z,67.10
2018-03-03T12:51:38.114Z,75.43
2018-03-03T12:52:41.463Z,70.12
2018-03-03T12:53:44.001Z,76.12
2018-03-03T12:54:46.545Z,83.82
2018-03-03T12:55:49.863Z,65.78
2018-03-03T12:56:52.436Z,70.20
2018-03-03T12:57:54.974Z,75.55
2018-03-03T12:58:57.522Z,71.50
2018-03-03T13:00:00.867Z,79.32
2018-03-03T13:01:03.397Z,69.37
2018-03-03T13:02:05.934Z,71.60
2018-03-03T13:03:08.458Z,73.93
2018-03-03T13:04:11.001Z,76.55
2018-03-03T13:05:13.574Z,75.65
2018-03-03T13:06:16.104Z,75.00
2018-03-03T13:07:19.401Z,73.20
2018-03-03T13:08:22.697Z,66.12
2018-03-03T13:09:25.241Z,70.60
2018-03-03T13:10:28.570Z,74.43
2018-03-03T13:11:31.098Z,74.80
2018-03-03T13:12:34.397Z,74.45
2018-03-03T13:13:36.929Z,78.80
2018-03-03T13:14:39.456Z,78.72
2018-03-03T13:15:42.032Z,68.78
2018-03-03T13:16:44.567Z,65.20
2018-03-03T13:17:47.102Z,66.72
2018-03-03T13:18:50.392Z,83.90
2018-03-03T13:19:53.682Z,78.50
2018-03-03T13:20:57.033Z,77.32
2018-03-03T13:21:59.615Z,80.15
2018-03-03T13:24:11.048Z,70.70
2018-03-03T13:25:13.577Z,74.22
2018-03-03T13:26:16.916Z,74.57
2018-03-03T13:27:19.445Z,72.00
2018-03-03T13:28:22.737Z,76.22
2018-03-03T13:29:25.285Z,93.47
2018-03-03T13:30:28.619Z,73.70
2018-03-03T13:31:31.140Z,83.78
2018-03-03T13:32:33.736Z,71.55
2018-03-03T13:33:36.265Z,72.47
2018-03-03T13:34:39.567Z,95.72
2018-03-03T13:35:42.104Z,77.47
2018-03-03T13:36:45.405Z,71.53
2018-03-03T13:37:47.972Z,73.87
2018-03-03T13:38:51.302Z,75.87
2018-03-03T13:39:53.881Z,77.43
2018-03-03T13:40:56.440Z,87.35
2018-03-03T13:41:58.970Z,75.35
2018-03-03T13:43:01.513Z,74.35
2018-03-03T13:44:04.806Z,79.30
2018-03-03T13:45:07.337Z,77.55
2018-03-03T13:46:09.896Z,76.03
2018-03-03T13:47:12.421Z,77.80
2018-03-03T13:48:14.951Z,83.95
2018-03-03T13:49:17.496Z,80.32